createdAt,value
2019-03-30T00:02:16.803Z,21.77
2019-03-30T00:04:44.043Z,20.63
2019-03-30T00:07:11.283Z,19.97
2019-03-30T00:09:38.515Z,17.80
2019-03-30T00:12:05.767Z,22.97
2019-03-30T00:14:33.255Z,22.63
2019-03-30T00:17:00.494Z,22.13
2019-03-30T00:19:34.731Z,21.47
2019-03-30T00:21:56.979Z,21.63
2019-03-30T00:24:24.225Z,22.27
2019-03-30T00:26:51.467Z,22.87
2019-03-30T00:29:18.711Z,19.77
2019-03-30T00:31:45.952Z,20.43
2019-03-30T00:34:13.191Z,23.00
2019-03-30T00:36:40.543Z,21.50
2019-03-30T00:39:08.474Z,21.30
2019-03-30T00:41:35.823Z,17.70
2019-03-30T00:44:03.318Z,20.10
2019-03-30T00:46:30.560Z,22.10
2019-03-30T00:48:57.799Z,18.87
2019-03-30T00:51:25.039Z,20.30
2019-03-30T00:53:52.380Z,20.13
2019-03-30T00:56:19.619Z,21.90
2019-03-30T00:58:47.266Z,19.70
2019-03-30T01:01:15.037Z,24.43
2019-03-30T01:03:42.288Z,24.20
2019-03-30T01:06:09.623Z,20.73
2019-03-30T01:08:36.885Z,21.47
2019-03-30T01:11:04.127Z,20.87
2019-03-30T01:13:31.819Z,24.40
2019-03-30T01:15:59.051Z,23.00
2019-03-30T01:18:26.304Z,19.53
2019-03-30T01:20:53.652Z,19.23
2019-03-30T01:23:20.884Z,21.77
2019-03-30T01:25:48.129Z,22.93
2019-03-30T01:28:15.355Z,20.27
2019-03-30T01:30:42.603Z,20.43
2019-03-30T01:33:09.852Z,19.23
2019-03-30T01:35:37.492Z,18.80
2019-03-30T01:38:04.831Z,21.80
2019-03-30T01:40:32.072Z,18.77
2019-03-30T01:42:59.337Z,22.53
2019-03-30T01:45:26.667Z,26.07
2019-03-30T01:47:53.916Z,22.73
2019-03-30T01:50:21.155Z,23.10
2019-03-30T01:52:48.396Z,22.30
2019-03-30T01:55:15.626Z,24.33
2019-03-30T01:57:42.859Z,23.57
2019-03-30T02:00:10.952Z,22.20
2019-03-30T02:02:38.402Z,23.07
2019-03-30T02:05:06.172Z,23.67
2019-03-30T02:07:33.431Z,24.07
2019-03-30T02:10:00.787Z,21.03
2019-03-30T02:12:28.032Z,23.77
2019-03-30T02:14:55.263Z,21.53
2019-03-30T02:17:22.519Z,25.93
2019-03-30T02:19:49.860Z,24.37
2019-03-30T02:22:17.211Z,23.83
2019-03-30T02:24:44.450Z,22.73
2019-03-30T02:27:11.704Z,24.17
2019-03-30T02:29:39.054Z,22.97
2019-03-30T02:32:06.291Z,23.83
2019-03-30T02:34:33.565Z,23.47
2019-03-30T02:37:00.824Z,22.83
2019-03-30T02:39:28.201Z,29.73
2019-03-30T02:41:55.760Z,24.23
2019-03-30T02:44:23.004Z,22.50
2019-03-30T02:46:50.236Z,24.10
2019-03-30T02:49:17.476Z,22.60
2019-03-30T02:51:44.707Z,23.03
2019-03-30T02:54:12.148Z,24.77
2019-03-30T02:56:39.397Z,21.17
2019-03-30T02:59:06.635Z,23.07
2019-03-30T03:01:33.884Z,22.87
2019-03-30T03:04:01.123Z,23.50
2019-03-30T03:06:28.369Z,22.03
2019-03-30T03:08:55.955Z,23.67
2019-03-30T03:11:23.196Z,23.53
2019-03-30T03:13:50.435Z,21.90
2019-03-30T03:16:17.788Z,24.67
2019-03-30T03:18:45.033Z,22.80
2019-03-30T03:21:12.364Z,24.70
2019-03-30T03:23:39.611Z,23.50
2019-03-30T03:26:06.877Z,23.80
2019-03-30T03:28:34.203Z,23.90
2019-03-30T03:31:01.570Z,23.50
2019-03-30T03:33:28.888Z,22.37
2019-03-30T03:35:56.135Z,24.10
2019-03-30T03:38:23.424Z,23.17
2019-03-30T03:40:51.044Z,23.90
2019-03-30T03:43:18.384Z,23.60
2019-03-30T03:45:45.617Z,23.53
2019-03-30T03:48:12.947Z,26.97
2019-03-30T12:35:31.258Z,14.57
2019-03-30T12:37:58.500Z,14.57
2019-03-30T12:40:25.857Z,15.67
2019-03-30T12:42:53.228Z,15.27
2019-03-30T12:45:20.675Z,16.03
2019-03-30T12:47:48.151Z,15.03
2019-03-30T12:50:15.734Z,17.07
2019-03-30T12:52:42.995Z,12.77
2019-03-30T12:55:10.439Z,12.97
2019-03-30T12:57:37.675Z,17.33
2019-03-30T13:00:05.350Z,12.37
2019-03-30T13:02:32.588Z,11.17
2019-03-30T13:04:59.854Z,13.60
2019-03-30T13:07:27.111Z,14.43
2019-03-30T13:09:54.724Z,12.97
2019-03-30T13:12:41.584Z,12.50
2019-03-30T13:15:09.339Z,13.53
2019-03-30T13:20:03.826Z,10.23
2019-03-30T13:22:31.069Z,13.00
2019-03-30T13:24:58.300Z,15.40
2019-03-30T13:29:52.171Z,14.00
2019-03-30T13:37:16.876Z,12.15
2019-03-30T13:39:45.103Z,12.60
2019-03-30T13:42:16.359Z,12.50
2019-03-30T13:44:43.609Z,12.97
2019-03-30T13:47:10.839Z,14.57
2019-03-30T13:49:38.111Z,14.33
2019-03-30T13:52:05.359Z,13.33
2019-03-30T13:54:32.590Z,15.37
2019-03-30T13:56:59.920Z,14.77
2019-03-30T13:59:27.163Z,15.07
2019-03-30T14:01:54.395Z,15.33
2019-03-30T14:04:21.780Z,16.43
2019-03-30T14:06:49.029Z,20.50
2019-03-30T14:09:16.244Z,17.80
2019-03-30T14:11:43.487Z,19.47
2019-03-30T14:14:10.736Z,18.60
2019-03-30T14:16:37.992Z,18.33
2019-03-30T14:19:05.263Z,20.07
2019-03-30T14:21:32.511Z,19.77
2019-03-30T14:24:00.139Z,18.53
2019-03-30T14:26:31.702Z,17.80
2019-03-30T14:28:56.645Z,17.13
2019-03-30T14:31:23.991Z,17.47
2019-03-30T14:33:51.324Z,18.83
2019-03-30T14:36:18.664Z,17.53
2019-03-30T14:38:46.011Z,16.93
2019-03-30T14:41:13.577Z,17.93
2019-03-30T14:43:40.830Z,15.83
2019-03-30T14:46:08.079Z,15.90
2019-03-30T14:48:35.574Z,18.53
2019-03-30T14:51:02.800Z,15.73
2019-03-30T14:53:30.044Z,13.20
2019-03-30T14:55:57.283Z,18.17
2019-03-30T14:58:24.551Z,18.33
2019-03-30T15:00:51.851Z,15.70
2019-03-30T15:03:19.203Z,17.37
2019-03-30T15:05:46.715Z,15.37
2019-03-30T15:08:13.948Z,16.07
2019-03-30T15:10:41.188Z,18.27
2019-03-30T15:13:08.527Z,14.17
2019-03-30T15:15:35.971Z,10.90
2019-03-30T15:18:03.403Z,12.27
2019-03-30T15:20:30.747Z,12.10
2019-03-30T15:22:58.010Z,13.37
2019-03-30T15:25:25.388Z,12.73
2019-03-30T15:27:52.639Z,10.60
2019-03-30T15:30:20.357Z,10.40
2019-03-30T15:32:47.599Z,10.93
2019-03-30T15:35:14.844Z,12.67
2019-03-30T15:37:42.298Z,11.20
2019-03-30T15:40:11.371Z,14.40
2019-03-30T15:42:40.335Z,11.97
2019-03-30T15:45:08.482Z,11.53
2019-03-30T15:47:35.839Z,11.93
2019-03-30T15:50:03.663Z,12.87
2019-03-30T15:52:30.927Z,11.70
2019-03-30T15:54:58.167Z,12.07
2019-03-30T15:57:25.606Z,12.93
2019-03-30T15:59:53.072Z,15.43
2019-03-30T16:02:20.727Z,16.10
2019-03-30T16:04:48.344Z,13.40
2019-03-30T16:07:15.574Z,13.67
2019-03-30T16:09:42.932Z,12.40
2019-03-30T16:12:10.175Z,14.30
2019-03-30T16:14:37.415Z,13.23
2019-03-30T16:17:04.663Z,14.43
2019-03-30T16:19:31.915Z,12.77
2019-03-30T16:21:59.159Z,15.20
2019-03-30T16:24:29.924Z,13.70
2019-03-30T16:26:55.736Z,14.60
2019-03-30T16:29:22.972Z,13.63
2019-03-30T16:31:50.235Z,14.93
2019-03-30T16:34:17.467Z,13.00
2019-03-30T16:36:44.713Z,15.80
2019-03-30T16:39:12.053Z,14.27
2019-03-30T16:41:39.306Z,15.80
2019-03-30T16:44:06.544Z,14.43
2019-03-30T16:46:33.792Z,15.43
2019-03-30T16:49:01.044Z,13.63
2019-03-30T16:51:28.306Z,15.90
2019-03-30T16:53:55.541Z,14.60
2019-03-30T16:56:22.790Z,17.97
2019-03-30T16:58:50.374Z,15.30
2019-03-30T17:01:17.717Z,22.93
2019-03-30T17:03:44.947Z,14.03
2019-03-30T17:06:12.212Z,15.37
2019-03-30T17:08:39.439Z,15.10
2019-03-30T17:11:06.703Z,15.47
2019-03-30T17:13:33.947Z,18.80
2019-03-30T17:16:01.428Z,19.27
2019-03-30T17:18:28.663Z,23.03
2019-03-30T17:20:55.927Z,17.20
2019-03-30T17:23:23.179Z,19.97
2019-03-30T17:25:50.420Z,15.63
2019-03-30T17:28:17.655Z,15.23
2019-03-30T17:30:45.004Z,15.00
2019-03-30T17:33:12.247Z,15.90
2019-03-30T17:35:39.536Z,16.23
2019-03-30T17:38:06.891Z,16.53
2019-03-30T17:40:34.136Z,13.27
2019-03-30T17:43:01.379Z,14.27
2019-03-30T17:45:28.631Z,16.23
2019-03-30T17:47:55.869Z,13.37
2019-03-30T17:50:23.229Z,11.77
2019-03-30T17:52:50.496Z,13.10
2019-03-30T17:55:17.851Z,11.13
2019-03-30T17:57:47.932Z,13.23
2019-03-30T18:00:21.460Z,11.17
2019-03-30T18:02:48.779Z,14.37
2019-03-30T18:05:16.080Z,12.00
2019-03-30T18:07:43.339Z,10.87
2019-03-30T18:10:11.100Z,12.27
2019-03-30T18:12:38.355Z,11.73
2019-03-30T18:15:07.360Z,13.47
2019-03-30T18:17:34.684Z,13.63
2019-03-30T18:20:02.200Z,17.87
2019-03-30T18:22:29.547Z,17.80
2019-03-30T18:24:56.795Z,18.57
2019-03-30T18:27:24.050Z,17.23
2019-03-30T18:29:51.631Z,19.73
2019-03-30T18:32:19.487Z,20.37
2019-03-30T18:34:47.123Z,22.37
2019-03-30T18:37:14.586Z,20.37
2019-03-30T18:39:42.268Z,19.80
2019-03-30T18:42:09.515Z,20.80
2019-03-30T18:44:36.878Z,19.07
2019-03-30T18:47:04.250Z,21.10
2019-03-30T18:49:31.494Z,21.77
2019-03-30T18:51:59.545Z,27.60
2019-03-30T18:54:28.239Z,25.70
2019-03-30T18:56:55.491Z,20.73
2019-03-30T18:59:22.741Z,25.23
2019-03-30T19:01:49.995Z,24.43
2019-03-30T19:04:17.351Z,20.07
2019-03-30T19:06:44.597Z,22.07
2019-03-30T19:09:11.828Z,20.00
2019-03-30T19:11:39.067Z,22.23
2019-03-30T19:14:06.313Z,25.73
2019-03-30T19:16:33.572Z,24.93
2019-03-30T19:19:00.800Z,23.60
2019-03-30T19:21:28.043Z,21.43
2019-03-30T19:23:55.387Z,24.87
2019-03-30T19:26:22.878Z,25.73
2019-03-30T19:28:56.185Z,24.90
2019-03-30T19:31:19.279Z,23.10
2019-03-30T19:33:47.223Z,21.67
2019-03-30T19:36:14.472Z,24.47
2019-03-30T19:38:42.050Z,24.40
2019-03-30T19:41:09.721Z,25.37
2019-03-30T19:43:37.066Z,23.83
2019-03-30T19:46:04.304Z,26.90
2019-03-30T19:48:31.625Z,25.40
2019-03-30T19:50:58.863Z,27.77
2019-03-30T19:53:26.132Z,28.37
2019-03-30T19:55:53.366Z,26.33
2019-03-30T19:58:20.887Z,28.23
2019-03-30T20:00:48.477Z,27.80
2019-03-30T20:03:15.812Z,26.33
2019-03-30T20:05:44.728Z,28.50
2019-03-30T20:08:12.769Z,29.47
2019-03-30T20:10:40.560Z,27.53
2019-03-30T20:13:09.307Z,40.53
2019-03-30T20:15:36.859Z,44.37
2019-03-30T20:18:04.099Z,37.33
2019-03-30T20:20:31.335Z,43.17
2019-03-30T20:22:58.584Z,42.23
2019-03-30T20:25:26.241Z,50.83
2019-03-30T20:27:53.712Z,53.10
2019-03-30T20:30:24.268Z,53.70
2019-03-30T20:32:50.280Z,55.37
2019-03-30T20:35:17.527Z,53.87
2019-03-30T20:37:44.771Z,57.20
2019-03-30T20:40:12.415Z,54.07
2019-03-30T20:42:39.671Z,51.23
2019-03-30T20:45:08.094Z,52.03
2019-03-30T20:47:35.373Z,47.53
2019-03-30T20:50:04.036Z,44.60
2019-03-30T20:52:31.287Z,50.30
2019-03-30T20:54:58.591Z,48.30
2019-03-30T20:57:25.920Z,47.43
2019-03-30T20:59:53.171Z,48.87
2019-03-30T21:02:20.411Z,49.67
2019-03-30T21:04:47.663Z,49.93
2019-03-30T21:07:14.899Z,54.43
2019-03-30T21:09:42.147Z,52.03
2019-03-30T21:12:09.388Z,49.50
2019-03-30T21:14:36.623Z,49.07
2019-03-30T21:17:03.867Z,52.37
2019-03-30T21:19:31.096Z,53.00
2019-03-30T21:21:58.746Z,53.93
2019-03-30T21:24:26.000Z,51.33
2019-03-30T21:26:53.667Z,52.03
2019-03-30T21:29:21.324Z,51.97
2019-03-30T21:31:49.357Z,61.67
2019-03-30T21:34:17.023Z,54.67
2019-03-30T21:36:44.267Z,76.73
2019-03-30T21:39:11.524Z,60.40
2019-03-30T21:41:38.767Z,62.77
2019-03-30T21:44:06.019Z,81.07
2019-03-30T21:46:33.277Z,77.37
2019-03-30T21:49:00.519Z,71.60
2019-03-30T21:51:27.773Z,79.67
2019-03-30T21:53:55.020Z,77.23
2019-03-30T21:56:22.274Z,76.23
2019-03-30T21:58:49.535Z,72.07
2019-03-30T22:01:16.782Z,70.13
2019-03-30T22:03:44.036Z,73.00
2019-03-30T22:06:11.371Z,70.00
2019-03-30T22:08:38.711Z,75.30
2019-03-30T22:11:05.959Z,83.67
2019-03-30T22:13:33.211Z,76.13
2019-03-30T22:16:00.564Z,78.37
2019-03-30T22:18:27.799Z,81.40
2019-03-30T22:20:55.051Z,75.87
2019-03-30T22:23:22.274Z,74.37
2019-03-30T22:25:49.523Z,73.93
2019-03-30T22:28:16.751Z,71.97
2019-03-30T22:30:43.994Z,74.47
2019-03-30T22:33:11.227Z,72.93
2019-03-30T22:35:38.467Z,76.77
2019-03-30T22:38:05.702Z,73.33
2019-03-30T22:40:32.956Z,66.50
2019-03-30T22:43:00.187Z,72.83
2019-03-30T22:45:27.424Z,73.10
2019-03-30T22:47:54.684Z,70.83
2019-03-30T22:50:22.023Z,75.80
2019-03-30T22:52:49.267Z,76.90
2019-03-30T22:55:16.608Z,76.17
2019-03-30T22:57:43.855Z,81.77
2019-03-30T23:00:20.894Z,76.33
2019-03-30T23:02:48.142Z,75.67
2019-03-30T23:05:15.395Z,71.33
2019-03-30T23:07:42.900Z,72.37
2019-03-30T23:10:10.239Z,74.27
2019-03-30T23:12:37.475Z,71.47
2019-03-30T23:15:05.127Z,69.73
2019-03-30T23:17:32.719Z,67.37
2019-03-30T23:19:59.961Z,68.87
2019-03-30T23:22:27.215Z,67.10
2019-03-30T23:24:54.451Z,67.13
2019-03-30T23:27:21.801Z,71.87
2019-03-30T23:29:49.037Z,66.20
2019-03-30T23:32:16.283Z,68.93
2019-03-30T23:34:43.528Z,65.67
2019-03-30T23:37:10.871Z,60.87
2019-03-30T23:39:38.120Z,72.90
2019-03-30T23:42:05.468Z,69.80
2019-03-30T23:44:32.722Z,68.50
2019-03-30T23:46:59.955Z,71.33
2019-03-30T23:49:27.206Z,69.07
2019-03-30T23:51:54.439Z,68.40
2019-03-30T23:54:21.688Z,68.30
2019-03-30T23:56:48.931Z,69.70
2019-03-30T23:59:16.167Z,74.50
